createdAt,value
2018-11-25T00:00:19.433Z,68.33
2018-11-25T00:02:47.835Z,66.57
2018-11-25T00:05:16.211Z,70.60
2018-11-25T00:07:44.613Z,69.70
2018-11-25T00:10:13.156Z,73.70
2018-11-25T00:12:41.487Z,67.73
2018-11-25T00:15:10.075Z,66.80
2018-11-25T00:17:38.434Z,71.27
2018-11-25T00:20:12.142Z,72.93
2018-11-25T00:22:40.792Z,71.97
2018-11-25T00:25:13.207Z,67.57
2018-11-25T00:27:41.550Z,65.60
2018-11-25T00:30:13.213Z,63.60
2018-11-25T00:32:41.649Z,59.77
2018-11-25T00:35:11.495Z,59.80
2018-11-25T00:37:43.371Z,57.87
2018-11-25T00:40:13.663Z,56.43
2018-11-25T00:42:42.418Z,54.03
2018-11-25T00:45:15.246Z,58.30
2018-11-25T00:47:43.597Z,59.73
2018-11-25T00:50:13.033Z,55.87
2018-11-25T00:52:41.687Z,57.23
2018-11-25T00:55:11.294Z,54.77
2018-11-25T00:57:39.742Z,54.13
2018-11-25T01:00:17.047Z,59.17
2018-11-25T01:02:45.980Z,61.03
2018-11-25T01:05:14.337Z,54.87
2018-11-25T01:07:42.627Z,58.07
2018-11-25T01:10:16.140Z,54.17
2018-11-25T01:12:45.121Z,57.30
2018-11-25T01:15:17.573Z,54.77
2018-11-25T01:17:46.123Z,55.60
2018-11-25T01:20:18.817Z,51.10
2018-11-25T01:22:47.219Z,52.87
2018-11-25T01:25:15.628Z,50.50
2018-11-25T01:27:43.955Z,52.07
2018-11-25T01:30:13.451Z,56.17
2018-11-25T01:32:41.848Z,59.63
2018-11-25T01:35:11.023Z,57.03
2018-11-25T01:37:39.469Z,64.37
2018-11-25T01:40:13.283Z,56.73
2018-11-25T01:42:41.635Z,57.43
2018-11-25T01:45:15.156Z,58.80
2018-11-25T01:47:43.513Z,59.47
2018-11-25T01:50:15.693Z,57.37
2018-11-25T01:52:44.053Z,59.83
2018-11-25T01:55:16.635Z,56.53
2018-11-25T01:57:45.008Z,56.57
2018-11-25T02:00:21.154Z,56.83
2018-11-25T02:02:49.929Z,56.03
2018-11-25T02:05:18.330Z,52.87
2018-11-25T02:07:46.707Z,56.93
2018-11-25T02:10:17.231Z,58.83
2018-11-25T02:12:45.588Z,55.67
2018-11-25T02:15:15.117Z,55.10
2018-11-25T02:17:43.501Z,57.40
2018-11-25T02:20:20.821Z,53.37
2018-11-25T02:22:49.752Z,52.30
2018-11-25T02:25:18.120Z,53.17
2018-11-25T02:27:51.754Z,50.63
2018-11-25T02:30:20.104Z,51.93
2018-11-25T02:32:48.497Z,50.43
2018-11-25T02:35:17.494Z,50.30
2018-11-25T02:37:45.857Z,51.07
2018-11-25T02:40:15.270Z,50.53
2018-11-25T02:42:43.609Z,48.60
2018-11-25T02:45:16.994Z,51.40
2018-11-25T02:47:45.411Z,46.63
2018-11-25T02:50:22.718Z,49.07
2018-11-25T02:52:51.177Z,50.10
2018-11-25T02:55:20.882Z,46.63
2018-11-25T02:57:49.241Z,47.17
2018-11-25T03:00:17.655Z,46.50
2018-11-25T03:02:45.998Z,50.87
2018-11-25T03:05:14.345Z,51.17
2018-11-25T03:07:42.763Z,47.80
2018-11-25T03:10:11.101Z,46.67
2018-11-25T03:12:39.512Z,47.00
2018-11-25T03:15:09.765Z,47.17
2018-11-25T03:17:38.199Z,51.43
2018-11-25T03:20:11.047Z,49.83
2018-11-25T03:22:39.472Z,47.43
2018-11-25T03:25:12.298Z,45.63
2018-11-25T03:27:40.651Z,45.30
2018-11-25T03:30:11.076Z,46.80
2018-11-25T03:32:39.560Z,45.17
2018-11-25T03:35:09.376Z,48.03
2018-11-25T03:37:38.573Z,48.77
2018-11-25T03:40:09.680Z,47.93
2018-11-25T03:42:38.160Z,46.30
2018-11-25T03:45:09.918Z,46.10
2018-11-25T03:47:38.291Z,45.97
2018-11-25T03:50:07.550Z,43.23
2018-11-25T03:52:35.910Z,45.00
2018-11-25T03:55:05.480Z,43.23
2018-11-25T03:57:33.821Z,45.83
2018-11-25T04:00:02.201Z,46.90
2018-11-25T04:02:30.597Z,47.63
2018-11-25T04:04:58.966Z,44.93
2018-11-25T04:07:27.357Z,44.53
2018-11-25T04:09:55.745Z,47.93
2018-11-25T04:12:24.920Z,45.67
2018-11-25T04:14:53.300Z,48.03
2018-11-25T04:17:21.630Z,46.20
2018-11-25T04:19:49.947Z,45.73
2018-11-25T04:22:18.404Z,45.63
2018-11-25T04:24:46.748Z,48.17
2018-11-25T04:27:15.132Z,45.30
2018-11-25T04:29:43.566Z,48.70
2018-11-25T04:32:11.894Z,49.83
2018-11-25T04:34:40.244Z,49.63
2018-11-25T04:37:08.614Z,49.23
2018-11-25T04:39:37.001Z,48.23
2018-11-25T04:42:05.890Z,49.07
2018-11-25T04:44:34.224Z,49.60
2018-11-25T04:47:02.546Z,48.17
2018-11-25T04:49:30.879Z,50.77
2018-11-25T04:51:59.246Z,47.20
2018-11-25T04:54:27.640Z,46.13
2018-11-25T04:56:56.000Z,48.93
2018-11-25T04:59:24.383Z,46.13
2018-11-25T05:01:52.755Z,49.57
2018-11-25T05:04:21.235Z,49.07
2018-11-25T05:06:49.581Z,48.87
2018-11-25T05:09:17.927Z,47.00
2018-11-25T05:11:47.586Z,49.27
2018-11-25T05:14:15.945Z,51.30
2018-11-25T05:16:44.298Z,47.57
2018-11-25T05:19:12.645Z,49.03
2018-11-25T05:21:41.068Z,49.70
2018-11-25T05:24:09.438Z,48.20
2018-11-25T05:26:37.823Z,47.70
2018-11-25T05:29:06.475Z,48.73
2018-11-25T05:31:34.844Z,47.90
2018-11-25T05:34:03.205Z,52.90
2018-11-25T05:36:31.581Z,47.20
2018-11-25T05:38:59.935Z,49.73
2018-11-25T05:41:28.279Z,50.80
2018-11-25T05:43:56.874Z,51.77
2018-11-25T05:46:25.289Z,48.67
2018-11-25T05:48:53.658Z,51.57
2018-11-25T05:51:22.015Z,51.77
2018-11-25T05:53:50.406Z,50.90
2018-11-25T05:56:18.890Z,53.67
2018-11-25T05:58:47.250Z,49.67
2018-11-25T06:01:15.661Z,50.07
2018-11-25T06:03:44.038Z,46.97
2018-11-25T06:06:12.463Z,50.27
2018-11-25T06:08:40.841Z,48.63
2018-11-25T06:11:09.238Z,52.20
2018-11-25T06:13:37.700Z,47.30
2018-11-25T06:16:06.424Z,49.63
2018-11-25T06:18:35.841Z,47.40
2018-11-25T06:21:04.185Z,50.00
2018-11-25T06:23:32.694Z,46.50
2018-11-25T06:26:01.166Z,45.30
2018-11-25T06:28:29.572Z,47.00
2018-11-25T06:30:58.018Z,43.10
2018-11-25T06:33:26.410Z,47.70
2018-11-25T06:35:54.838Z,44.00
2018-11-25T06:38:24.390Z,44.20
2018-11-25T06:40:51.723Z,44.83
2018-11-25T06:43:20.161Z,48.40
2018-11-25T06:45:48.496Z,46.67
2018-11-25T06:48:16.916Z,45.50
2018-11-25T06:50:45.350Z,45.93
2018-11-25T06:53:13.749Z,44.77
2018-11-25T06:55:42.173Z,42.07
2018-11-25T06:58:10.546Z,48.17
2018-11-25T07:00:38.988Z,46.27
2018-11-25T07:03:07.385Z,44.67
2018-11-25T07:05:35.758Z,42.27
2018-11-25T07:08:04.558Z,45.07
2018-11-25T07:10:32.916Z,48.50
2018-11-25T07:13:01.337Z,41.83
2018-11-25T07:15:29.749Z,43.97
2018-11-25T07:17:58.109Z,43.67
2018-11-25T07:20:26.458Z,42.17
2018-11-25T07:22:54.966Z,42.17
2018-11-25T07:25:24.070Z,42.40
2018-11-25T07:27:52.663Z,40.87
2018-11-25T07:30:22.160Z,42.80
2018-11-25T07:32:50.692Z,43.37
2018-11-25T07:35:19.110Z,41.50
2018-11-25T07:37:47.550Z,41.77
2018-11-25T07:40:20.091Z,41.73
2018-11-25T07:42:48.891Z,42.73
2018-11-25T07:45:18.359Z,47.27
2018-11-25T07:47:46.777Z,43.53
2018-11-25T07:50:15.199Z,44.47
2018-11-25T07:52:44.559Z,42.43
2018-11-25T07:55:17.210Z,43.00
2018-11-25T07:57:46.161Z,43.80
2018-11-25T08:00:16.639Z,42.77
2018-11-25T08:02:45.160Z,42.33
2018-11-25T08:05:17.738Z,44.07
2018-11-25T08:07:46.255Z,42.17
2018-11-25T08:10:15.495Z,45.17
2018-11-25T08:12:44.390Z,53.05
2018-11-25T08:15:14.858Z,45.70
2018-11-25T08:17:43.236Z,44.80
2018-11-25T08:20:19.494Z,43.83
2018-11-25T08:22:48.118Z,49.10
2018-11-25T08:25:17.559Z,46.80
2018-11-25T08:27:46.006Z,49.57
2018-11-25T08:30:15.335Z,47.73
2018-11-25T08:32:43.885Z,47.97
2018-11-25T08:35:13.281Z,49.77
2018-11-25T08:37:41.639Z,47.50
2018-11-25T08:40:13.233Z,48.57
2018-11-25T08:42:43.244Z,47.23
2018-11-25T08:45:12.571Z,39.10
2018-11-25T08:47:40.956Z,43.07
2018-11-25T08:50:13.401Z,43.27
2018-11-25T08:52:42.461Z,47.30
2018-11-25T08:55:15.180Z,46.83
2018-11-25T08:57:43.691Z,47.93
2018-11-25T09:00:13.532Z,47.03
2018-11-25T09:02:41.945Z,46.90
2018-11-25T09:05:11.586Z,45.17
2018-11-25T09:07:39.952Z,46.63
2018-11-25T09:10:16.515Z,47.20
2018-11-25T09:12:45.804Z,45.77
2018-11-25T09:15:15.453Z,47.10
2018-11-25T09:17:43.997Z,45.80
2018-11-25T09:20:13.721Z,47.27
2018-11-25T09:22:42.201Z,45.80
2018-11-25T09:25:14.942Z,45.67
2018-11-25T09:27:43.456Z,46.53
2018-11-25T09:30:20.057Z,46.10
2018-11-25T09:32:48.646Z,47.33
2018-11-25T09:35:17.525Z,46.63
2018-11-25T09:37:46.596Z,48.43
2018-11-25T09:40:16.316Z,48.83
2018-11-25T09:42:44.743Z,48.63
2018-11-25T09:45:17.289Z,44.77
2018-11-25T09:47:47.118Z,46.93
2018-11-25T09:50:19.648Z,48.47
2018-11-25T09:52:48.082Z,49.77
2018-11-25T09:55:21.596Z,48.47
2018-11-25T09:57:52.318Z,45.83
2018-11-25T10:00:24.992Z,46.80
2018-11-25T10:02:53.522Z,49.67
2018-11-25T10:05:21.948Z,46.47
2018-11-25T10:07:50.393Z,47.03
2018-11-25T10:10:20.886Z,48.75
2018-11-25T10:12:49.385Z,45.70
2018-11-25T10:15:19.110Z,49.25
2018-11-25T10:17:47.506Z,49.23
2018-11-25T10:20:20.151Z,48.93
2018-11-25T10:22:48.524Z,51.73
2018-11-25T10:25:17.402Z,50.90
2018-11-25T10:27:45.863Z,48.27
2018-11-25T10:30:19.294Z,47.25
2018-11-25T10:32:48.832Z,50.10
2018-11-25T10:35:17.272Z,48.13
2018-11-25T10:37:45.743Z,47.60
2018-11-25T10:40:15.319Z,46.73
2018-11-25T10:42:43.731Z,46.37
2018-11-25T10:45:14.374Z,49.17
2018-11-25T10:47:42.840Z,47.87
2018-11-25T10:50:16.471Z,48.08
2018-11-25T10:52:44.928Z,47.60
2018-11-25T10:55:14.423Z,49.63
2018-11-25T10:57:43.808Z,45.70
2018-11-25T11:00:25.502Z,46.58
2018-11-25T11:02:58.079Z,47.63
2018-11-25T11:05:30.772Z,50.63
2018-11-25T11:07:59.237Z,48.57
2018-11-25T11:10:27.710Z,50.27
2018-11-25T11:12:56.360Z,48.47
2018-11-25T11:15:24.778Z,49.23
2018-11-25T11:17:53.199Z,47.13
2018-11-25T11:20:21.628Z,46.20
2018-11-25T11:22:50.064Z,48.90
2018-11-25T11:25:18.520Z,51.13
2018-11-25T11:27:46.891Z,49.53
2018-11-25T11:30:15.362Z,48.50
2018-11-25T11:32:45.261Z,46.77
2018-11-25T11:35:13.891Z,48.60
2018-11-25T11:37:42.286Z,49.40
2018-11-25T11:40:11.932Z,50.20
2018-11-25T11:42:40.504Z,48.90
2018-11-25T11:45:13.880Z,48.78
2018-11-25T11:47:43.187Z,48.03
2018-11-25T11:50:13.023Z,47.30
2018-11-25T11:52:41.592Z,45.17
2018-11-25T11:55:12.728Z,48.40
2018-11-25T11:57:42.359Z,49.53
2018-11-25T12:00:15.416Z,47.03
2018-11-25T12:02:44.013Z,50.17
2018-11-25T12:05:12.552Z,49.10
2018-11-25T12:07:40.991Z,50.28
2018-11-25T12:10:11.211Z,50.67
2018-11-25T12:12:39.695Z,50.85
2018-11-25T12:15:13.471Z,49.80
2018-11-25T12:17:41.962Z,51.37
2018-11-25T12:20:10.994Z,46.80
2018-11-25T12:22:39.643Z,47.13
2018-11-25T12:25:11.340Z,47.90
2018-11-25T12:27:39.832Z,46.55
2018-11-25T12:30:12.441Z,43.93
2018-11-25T12:32:41.439Z,45.73
2018-11-25T12:35:11.072Z,43.70
2018-11-25T12:37:39.525Z,48.98
2018-11-25T12:40:10.850Z,47.57
2018-11-25T12:42:39.670Z,44.53
2018-11-25T12:45:10.104Z,39.73
2018-11-25T12:47:38.565Z,40.40
2018-11-25T12:50:09.042Z,43.30
2018-11-25T12:52:37.593Z,43.95
2018-11-25T12:55:11.143Z,43.75
2018-11-25T12:57:39.581Z,44.77
2018-11-25T13:00:16.963Z,44.10
2018-11-25T13:02:45.394Z,45.87
2018-11-25T13:05:13.880Z,46.60
2018-11-25T13:07:42.383Z,44.37
2018-11-25T13:10:10.884Z,46.33
2018-11-25T13:12:39.434Z,45.88
2018-11-25T13:15:09.286Z,45.60
2018-11-25T13:17:37.673Z,45.92
2018-11-25T13:20:09.253Z,44.23
2018-11-25T13:22:38.443Z,46.80
2018-11-25T13:25:08.423Z,46.60
2018-11-25T13:27:37.054Z,49.40
2018-11-25T13:30:13.085Z,50.67
2018-11-25T13:32:41.453Z,49.00
2018-11-25T13:35:10.474Z,49.37
2018-11-25T13:37:39.165Z,52.03
2018-11-25T13:40:11.955Z,49.50
2018-11-25T13:42:40.613Z,50.90
2018-11-25T13:45:09.260Z,56.10
2018-11-25T13:47:37.665Z,57.08
2018-11-25T13:50:07.575Z,50.63
2018-11-25T13:52:36.052Z,52.60
2018-11-25T13:55:05.815Z,50.10
2018-11-25T13:57:34.469Z,49.10
2018-11-25T14:00:02.964Z,48.93
2018-11-25T14:02:31.386Z,47.93
2018-11-25T14:04:59.886Z,48.70
2018-11-25T14:07:28.366Z,49.40
2018-11-25T14:09:56.979Z,47.08
2018-11-25T14:12:25.363Z,53.00
2018-11-25T14:14:53.816Z,48.87
2018-11-25T14:17:22.554Z,49.13
2018-11-25T14:19:51.002Z,48.57
2018-11-25T14:22:19.555Z,49.57
2018-11-25T14:24:47.914Z,51.90
2018-11-25T14:27:16.333Z,53.48
2018-11-25T14:29:44.752Z,50.45
2018-11-25T14:32:13.255Z,51.87
2018-11-25T14:34:41.674Z,51.90
2018-11-25T14:37:10.054Z,53.20
2018-11-25T14:39:38.786Z,52.03
2018-11-25T14:42:07.190Z,54.77
2018-11-25T14:44:35.650Z,54.38
2018-11-25T14:47:05.807Z,51.57
2018-11-25T14:49:34.240Z,52.10
2018-11-25T14:52:02.649Z,47.55
2018-11-25T14:54:31.093Z,49.38
2018-11-25T14:56:59.473Z,47.93
2018-11-25T14:59:27.960Z,48.90
2018-11-25T15:01:57.272Z,50.35
2018-11-25T15:04:25.647Z,49.33
2018-11-25T15:06:54.073Z,49.25
2018-11-25T15:09:22.448Z,52.60
2018-11-25T15:11:50.862Z,50.67
2018-11-25T15:14:19.271Z,49.30
2018-11-25T15:16:47.713Z,46.13
2018-11-25T15:19:16.191Z,49.27
2018-11-25T15:21:44.607Z,47.65
2018-11-25T15:24:13.024Z,49.77
2018-11-25T15:26:41.395Z,46.60
2018-11-25T15:29:09.820Z,48.52
2018-11-25T15:31:38.378Z,46.07
2018-11-25T15:34:06.795Z,50.05
2018-11-25T15:36:37.372Z,47.06
2018-11-25T15:39:10.080Z,45.63
2018-11-25T15:41:39.065Z,48.73
2018-11-25T15:44:08.196Z,50.20
2018-11-25T15:46:38.571Z,53.40
2018-11-25T15:49:07.838Z,51.67
2018-11-25T15:51:36.870Z,57.43
2018-11-25T15:54:06.105Z,56.03
2018-11-25T15:56:35.263Z,55.33
2018-11-25T15:59:04.350Z,57.62
2018-11-25T16:01:33.367Z,58.67
2018-11-25T16:04:02.442Z,56.93
2018-11-25T16:06:33.801Z,62.23
2018-11-25T16:09:02.849Z,60.03
2018-11-25T16:11:31.945Z,61.10
2018-11-25T16:14:01.033Z,56.05
2018-11-25T16:16:30.074Z,56.98
2018-11-25T16:18:59.129Z,56.47
2018-11-25T16:21:28.207Z,55.92
2018-11-25T16:23:57.244Z,53.23
2018-11-25T16:26:32.086Z,51.60
2018-11-25T16:29:07.015Z,50.57
2018-11-25T16:31:36.178Z,50.98
2018-11-25T16:34:05.476Z,55.38
2018-11-25T16:36:34.487Z,48.35
2018-11-25T16:39:03.583Z,50.60
2018-11-25T16:41:32.692Z,49.87
2018-11-25T16:44:01.745Z,47.87
2018-11-25T16:46:31.526Z,51.63
2018-11-25T16:49:00.687Z,48.20
2018-11-25T16:51:29.840Z,50.13
2018-11-25T16:53:58.944Z,50.73
2018-11-25T16:56:28.056Z,50.07
2018-11-25T16:58:58.556Z,52.17
2018-11-25T17:01:36.500Z,49.83
2018-11-25T17:04:09.389Z,51.43
2018-11-25T17:06:46.846Z,57.33
2018-11-25T17:09:16.266Z,53.83
2018-11-25T17:11:49.853Z,53.52
2018-11-25T17:14:21.365Z,53.25
2018-11-25T17:16:50.429Z,54.67
2018-11-25T17:19:19.964Z,55.37
2018-11-25T17:21:52.743Z,55.55
2018-11-25T17:24:26.914Z,55.87
2018-11-25T17:30:47.482Z,55.60
2018-11-25T17:33:16.649Z,55.00
2018-11-25T17:35:46.641Z,56.70
2018-11-25T17:38:25.015Z,53.47
2018-11-25T17:40:55.134Z,54.90
2018-11-25T17:43:44.288Z,53.37
2018-11-25T17:46:15.712Z,60.00
2018-11-25T17:48:49.835Z,54.50
2018-11-25T17:51:19.195Z,59.50
2018-11-25T17:53:51.677Z,58.55
2018-11-25T17:59:28.556Z,61.03
2018-11-25T18:01:57.626Z,60.90
2018-11-25T18:04:26.655Z,65.40
2018-11-25T18:06:55.814Z,60.10
2018-11-25T18:09:24.882Z,61.23
2018-11-25T18:11:54.037Z,57.43
2018-11-25T18:14:23.035Z,60.28
2018-11-25T18:16:53.308Z,58.27
2018-11-25T18:19:23.699Z,56.77
2018-11-25T18:21:59.439Z,56.02
2018-11-25T18:24:28.541Z,54.00
2018-11-25T18:29:58.074Z,55.30
2018-11-25T18:32:27.160Z,53.02
2018-11-25T18:34:56.372Z,56.03
2018-11-25T18:37:25.351Z,59.27
2018-11-25T18:39:54.457Z,58.00
2018-11-25T18:42:24.890Z,59.53
2018-11-25T18:45:31.713Z,54.35
2018-11-25T18:48:00.964Z,53.10
2018-11-25T18:50:29.987Z,51.80
2018-11-25T18:52:59.106Z,51.60
2018-11-25T18:55:27.213Z,53.27
2018-11-25T18:57:57.561Z,52.73
2018-11-25T19:00:36.243Z,47.27
2018-11-25T19:03:05.577Z,49.33
2018-11-25T19:05:34.995Z,46.20
2018-11-25T19:08:05.145Z,46.50
2018-11-25T19:10:34.803Z,44.73
2018-11-25T19:13:03.366Z,44.47
2018-11-25T19:15:32.527Z,42.53
2018-11-25T19:18:01.637Z,44.75
2018-11-25T19:20:30.857Z,42.63
2018-11-25T19:23:00.331Z,41.73
2018-11-25T19:25:51.782Z,41.37
2018-11-25T19:28:24.071Z,41.50
2018-11-25T19:31:00.473Z,39.85
2018-11-25T19:33:30.277Z,40.13
2018-11-25T19:35:59.262Z,40.87
2018-11-25T19:38:28.873Z,41.98
2018-11-25T19:40:57.947Z,39.67
2018-11-25T19:43:26.966Z,40.43
2018-11-25T19:45:56.130Z,39.53
2018-11-25T19:48:25.287Z,42.10
2018-11-25T19:50:54.378Z,43.28
2018-11-25T19:53:24.312Z,42.62
2018-11-25T19:55:53.510Z,42.03
2018-11-25T19:58:22.607Z,42.88
2018-11-25T20:01:39.756Z,41.80
2018-11-25T20:04:08.856Z,43.80
2018-11-25T20:06:43.468Z,43.37
2018-11-25T20:09:39.379Z,43.00
2018-11-25T20:15:31.340Z,42.70
2018-11-25T20:18:03.678Z,42.37
2018-11-25T20:20:37.264Z,46.10
2018-11-25T20:23:08.741Z,47.73
2018-11-25T20:25:39.138Z,42.93
2018-11-25T20:28:28.165Z,47.30
2018-11-25T20:30:57.534Z,47.67
2018-11-25T20:33:31.569Z,48.63
2018-11-25T20:36:04.218Z,45.97
2018-11-25T20:38:39.289Z,48.60
2018-11-25T20:41:11.506Z,49.37
2018-11-25T20:43:40.550Z,46.80
2018-11-25T20:46:15.582Z,48.27
2018-11-25T20:48:48.718Z,48.10
2018-11-25T20:51:18.229Z,49.83
2018-11-25T20:53:51.953Z,47.20
2018-11-25T20:56:20.990Z,44.33
2018-11-25T20:58:50.047Z,45.63
2018-11-25T21:01:19.236Z,46.30
2018-11-25T21:04:06.734Z,47.57
2018-11-25T21:06:36.558Z,46.47
2018-11-25T21:09:32.786Z,45.50
2018-11-25T21:12:03.047Z,45.73
2018-11-25T21:14:35.843Z,44.57
2018-11-25T21:17:05.067Z,47.73
2018-11-25T21:22:52.386Z,42.00
2018-11-25T21:25:22.546Z,44.83
2018-11-25T21:27:51.580Z,41.05
2018-11-25T21:30:25.659Z,40.77
2018-11-25T21:32:58.462Z,41.30
2018-11-25T21:35:27.461Z,37.93
2018-11-25T21:37:57.980Z,41.53
2018-11-25T21:40:34.128Z,38.40
2018-11-25T21:43:05.843Z,39.63
2018-11-25T21:45:34.901Z,38.13
2018-11-25T21:48:03.946Z,39.55
2018-11-25T21:50:33.050Z,40.00
2018-11-25T21:53:02.109Z,42.97
2018-11-25T21:55:31.193Z,38.28
2018-11-25T21:58:00.226Z,39.17
2018-11-25T22:00:29.467Z,36.00
2018-11-25T22:02:58.559Z,37.88
2018-11-25T22:05:27.697Z,35.63
2018-11-25T22:07:56.757Z,34.37
2018-11-25T22:10:25.892Z,32.78
2018-11-25T22:12:55.058Z,33.20
2018-11-25T22:15:24.082Z,34.93
2018-11-25T22:17:53.208Z,33.77
2018-11-25T22:20:25.196Z,32.70
2018-11-25T22:22:54.302Z,33.30
2018-11-25T22:25:23.292Z,34.67
2018-11-25T22:27:52.377Z,32.90
2018-11-25T22:30:23.016Z,33.33
2018-11-25T22:32:52.151Z,32.33
2018-11-25T22:35:22.323Z,28.47
2018-11-25T22:37:51.380Z,30.60
2018-11-25T22:40:20.646Z,31.12
2018-11-25T22:42:50.433Z,28.67
2018-11-25T22:45:21.835Z,30.17
2018-11-25T22:47:50.948Z,30.75
2018-11-25T22:50:21.231Z,30.72
2018-11-25T22:52:50.513Z,31.53
2018-11-25T22:55:21.739Z,32.10
2018-11-25T22:57:50.768Z,32.97
2018-11-25T23:00:25.328Z,33.20
2018-11-25T23:02:55.405Z,32.07
2018-11-25T23:05:33.371Z,32.13
2018-11-25T23:08:02.762Z,33.27
2018-11-25T23:10:31.797Z,30.37
2018-11-25T23:13:00.845Z,31.93
2018-11-25T23:15:30.069Z,30.77
2018-11-25T23:17:59.050Z,29.73
2018-11-25T23:20:28.069Z,31.47
2018-11-25T23:22:57.138Z,27.90
2018-11-25T23:25:26.143Z,28.63
2018-11-25T23:27:55.287Z,27.73
2018-11-25T23:30:24.334Z,28.40
2018-11-25T23:32:53.300Z,28.07
2018-11-25T23:35:24.115Z,28.93
2018-11-25T23:37:53.153Z,28.73
2018-11-25T23:40:22.169Z,26.70
2018-11-25T23:42:51.312Z,27.65
2018-11-25T23:45:20.440Z,27.00
2018-11-25T23:47:49.458Z,27.45
2018-11-25T23:50:18.531Z,28.87
2018-11-25T23:52:48.518Z,28.70
2018-11-25T23:55:17.544Z,31.17
2018-11-25T23:57:46.567Z,29.03
